map of BHD home
BHD - Airport
Location
City:  Belfast, County Down, Northern Ireland, United Kingdom
Name:George Best Belfast City
ICAO:EGAC
IATA:BHD

Details
Type:Airport (Aerodrome, Airfield)
Use:Public/Civil, International (customs port of entry)
Latitude:5437'05"N (54.618056)
Longitude:552'21"W (-5.872499)
Datum:WGS 1984
Elevation:15 ft (5 m)
Variation:3.10W (WMM2015 magnetic declination)
0.17 annual change
Runways:1
Longest:6001 × 148 ft (1829 × 45 m), paved

Time
Time Zone:UTC+0 (DST+1)
Local Time:

Weather
METAR:EGAC 191720Z 16004KT 9999 BKN020 07/03 Q1019

Related Locations
Nearby:
Farthest:SZS: 11837 mi / 19049 km
Ryan's Creek, Stewart Island, STL, NZ

Find:

   beyond  
but within

Other Information
Maps:
NOTAMs:
Links:
Sources:

  
flag of United Kingdom
flag of Northern Ireland
flag of Belfast
  

Sectional Chart

Flight Planning
at skyvector.com

Satellite Image

Google Maps Satellite view

 

Copyright © 2004-2017 Karl L. Swartz. All rights reserved.
The Great Circle Mapper name and logo are trademarks of the Great Circle Mapper.
All other trademarks mentioned herein belong to their respective owners.
Please see credits for attibutions and further copyright information.

  Follow gcmap on Facebook Follow gcmap on Twitter Follow gcmap on Google+ GCmap on LinkedIn

hCard Microformat

Geo Microformat